createdAt,value
2023-03-03T00:00:08.811Z,100.00
2023-03-03T00:02:35.721Z,99.93
2023-03-03T00:05:02.698Z,100.00
2023-03-03T00:07:29.763Z,100.00
2023-03-03T00:09:56.874Z,100.00
2023-03-03T00:12:29.516Z,100.00
2023-03-03T00:14:56.838Z,100.00
2023-03-03T00:17:33.043Z,100.00
2023-03-03T00:20:00.031Z,100.00
2023-03-03T00:22:37.422Z,100.00
2023-03-03T00:25:19.979Z,100.00
2023-03-03T00:27:47.238Z,100.00
2023-03-03T00:30:27.773Z,100.00
2023-03-03T00:32:56.105Z,100.00
2023-03-03T00:35:35.661Z,100.00
2023-03-03T00:38:13.044Z,100.00
2023-03-03T00:40:41.248Z,100.00
2023-03-03T00:43:26.117Z,100.00
2023-03-03T00:45:55.230Z,100.00
2023-03-03T00:48:29.357Z,100.00
2023-03-03T00:50:58.949Z,100.00
2023-03-03T00:53:28.290Z,100.00
2023-03-03T00:55:55.848Z,100.00
2023-03-03T00:58:24.419Z,100.00
2023-03-03T01:00:56.901Z,100.00
2023-03-03T01:03:26.769Z,100.00
2023-03-03T01:05:54.898Z,100.00
2023-03-03T01:08:22.602Z,100.00
2023-03-03T01:10:58.845Z,100.00
2023-03-03T01:13:31.658Z,100.00
2023-03-03T01:16:00.234Z,100.00
2023-03-03T01:18:28.095Z,100.00
2023-03-03T01:20:55.043Z,100.00
2023-03-03T01:23:22.296Z,100.00
2023-03-03T01:25:49.682Z,100.00
2023-03-03T01:28:16.599Z,100.00
2023-03-03T01:30:43.775Z,100.00
2023-03-03T01:33:10.727Z,100.00
2023-03-03T01:35:38.079Z,100.00
2023-03-03T01:38:05.046Z,100.00
2023-03-03T01:40:32.162Z,100.00
2023-03-03T01:43:01.977Z,100.00
2023-03-03T01:45:43.697Z,100.00
2023-03-03T01:48:23.580Z,100.00
2023-03-03T01:50:54.752Z,100.00
2023-03-03T01:53:38.665Z,100.00
2023-03-03T01:56:08.988Z,100.00
2023-03-03T01:58:40.790Z,100.00
2023-03-03T02:01:20.678Z,100.00
2023-03-03T02:03:48.772Z,100.00
2023-03-03T02:06:19.529Z,100.00
2023-03-03T02:09:29.940Z,100.00
2023-03-03T02:12:16.406Z,100.00
2023-03-03T02:14:51.329Z,100.00
2023-03-03T02:17:52.689Z,100.00
2023-03-03T02:20:46.351Z,100.00
2023-03-03T02:23:36.432Z,100.00
2023-03-03T02:26:07.760Z,100.00
2023-03-03T02:28:37.067Z,100.00
2023-03-03T02:31:07.651Z,99.92
2023-03-03T02:33:34.592Z,100.00
2023-03-03T02:36:01.564Z,100.00
2023-03-03T02:38:36.772Z,100.00
2023-03-03T02:41:28.264Z,100.00
2023-03-03T02:44:02.738Z,100.00
2023-03-03T02:46:34.633Z,100.00
2023-03-03T02:49:01.953Z,100.00
2023-03-03T02:51:28.877Z,100.00
2023-03-03T02:53:55.851Z,100.00
2023-03-03T02:56:23.339Z,100.00
2023-03-03T02:58:50.612Z,99.90
2023-03-03T03:01:18.033Z,100.00
2023-03-03T03:03:45.160Z,99.56
2023-03-03T03:06:12.154Z,99.07
2023-03-03T03:08:39.206Z,98.70
2023-03-03T03:11:06.374Z,98.91
2023-03-03T03:13:33.914Z,97.40
2023-03-03T03:16:01.281Z,97.12
2023-03-03T03:18:28.567Z,97.04
2023-03-03T03:20:55.556Z,97.09
2023-03-03T03:23:22.533Z,97.08
2023-03-03T03:25:49.758Z,96.37
2023-03-03T03:28:17.912Z,97.55
2023-03-03T03:30:45.962Z,98.02
2023-03-03T03:33:13.285Z,97.88
2023-03-03T03:35:45.782Z,98.38
2023-03-03T03:38:13.494Z,97.92
2023-03-03T03:40:40.808Z,98.61
2023-03-03T03:43:08.006Z,99.55
2023-03-03T03:45:34.955Z,99.03
2023-03-03T03:48:01.992Z,99.01
2023-03-03T03:50:29.115Z,98.85
2023-03-03T03:52:56.039Z,98.79
2023-03-03T03:55:23.213Z,98.57
2023-03-03T03:57:50.281Z,98.15
2023-03-03T04:00:17.442Z,97.58
2023-03-03T04:02:44.441Z,96.77
2023-03-03T04:05:11.459Z,97.51
2023-03-03T04:07:38.366Z,97.29
2023-03-03T04:10:06.012Z,97.20
2023-03-03T04:12:38.669Z,96.94
2023-03-03T04:15:10.986Z,97.05
2023-03-03T04:17:38.017Z,96.98
2023-03-03T04:20:06.241Z,96.43
2023-03-03T04:22:34.224Z,97.29
2023-03-03T04:25:05.470Z,97.69
2023-03-03T04:27:33.907Z,97.30
2023-03-03T04:30:02.019Z,96.42
2023-03-03T04:32:29.324Z,96.03
2023-03-03T04:35:07.275Z,94.82
2023-03-03T04:37:36.660Z,93.89
2023-03-03T04:40:08.249Z,94.01
2023-03-03T04:42:35.776Z,96.51
2023-03-03T04:45:03.243Z,96.76
2023-03-03T04:47:30.242Z,96.05
2023-03-03T04:49:57.169Z,95.90
2023-03-03T04:52:24.234Z,96.23
2023-03-03T04:54:51.129Z,96.63
2023-03-03T04:57:18.087Z,96.84
2023-03-03T04:59:45.189Z,96.55
2023-03-03T05:02:13.285Z,96.62
2023-03-03T05:04:40.272Z,97.20
2023-03-03T05:07:07.208Z,96.85
2023-03-03T05:09:34.420Z,96.57
2023-03-03T05:12:01.353Z,97.20
2023-03-03T05:14:28.435Z,97.16
2023-03-03T05:16:55.408Z,96.35
2023-03-03T05:19:22.408Z,97.38
2023-03-03T05:21:49.450Z,98.97
2023-03-03T05:24:16.494Z,100.00
2023-03-03T05:26:43.365Z,100.00
2023-03-03T05:29:10.429Z,100.00
2023-03-03T05:31:37.423Z,100.00
2023-03-03T05:34:04.418Z,100.00
2023-03-03T05:36:31.462Z,99.36
2023-03-03T05:38:58.720Z,97.61
2023-03-03T05:41:25.759Z,99.39
2023-03-03T05:43:52.820Z,100.00
2023-03-03T05:49:00.460Z,99.46
2023-03-03T05:51:27.375Z,99.28
2023-03-03T05:53:56.370Z,98.97
2023-03-03T05:56:23.666Z,98.84
2023-03-03T05:58:50.568Z,99.28
2023-03-03T06:01:17.595Z,99.25
2023-03-03T06:03:44.570Z,100.00
2023-03-03T06:06:12.594Z,100.00
2023-03-03T06:08:39.557Z,100.00
2023-03-03T06:11:06.464Z,100.00
2023-03-03T06:13:33.379Z,100.00
2023-03-03T06:16:00.387Z,100.00
2023-03-03T06:18:27.367Z,100.00
2023-03-03T06:20:55.350Z,100.00
2023-03-03T06:23:22.994Z,100.00
2023-03-03T06:25:50.103Z,100.00
2023-03-03T06:28:17.220Z,100.00
2023-03-03T06:30:44.228Z,99.41
2023-03-03T06:33:11.273Z,98.06
2023-03-03T06:35:38.247Z,97.40
2023-03-03T06:38:05.241Z,98.82
2023-03-03T06:40:32.202Z,97.71
2023-03-03T06:42:59.124Z,97.01
2023-03-03T06:45:26.099Z,96.22
2023-03-03T06:47:53.002Z,98.07
2023-03-03T06:50:21.238Z,99.08
2023-03-03T06:52:48.371Z,99.28
2023-03-03T06:55:23.677Z,99.05
2023-03-03T06:57:50.605Z,99.34
2023-03-03T07:00:30.701Z,99.19
2023-03-03T07:03:06.282Z,98.87
2023-03-03T07:05:34.635Z,99.25
2023-03-03T07:08:01.566Z,97.42
2023-03-03T07:10:31.289Z,98.02
2023-03-03T07:13:17.215Z,98.86
2023-03-03T07:15:44.223Z,99.74
2023-03-03T07:18:35.435Z,99.43
2023-03-03T07:21:36.880Z,99.37
2023-03-03T07:24:28.121Z,99.71
2023-03-03T07:27:21.870Z,96.37
2023-03-03T07:29:51.753Z,96.52
2023-03-03T07:32:34.579Z,93.80
2023-03-03T07:35:03.004Z,97.10
2023-03-03T07:37:39.041Z,98.79
2023-03-03T07:40:34.999Z,98.73
2023-03-03T07:43:17.364Z,99.42
2023-03-03T07:45:44.359Z,99.93
2023-03-03T07:48:14.055Z,99.49
2023-03-03T07:50:41.650Z,97.15
2023-03-03T07:53:36.631Z,98.46
2023-03-03T07:56:12.793Z,97.41
2023-03-03T07:58:42.318Z,98.17
2023-03-03T08:01:31.971Z,99.97
2023-03-03T08:03:58.961Z,100.00
2023-03-03T08:06:36.289Z,99.96
2023-03-03T08:09:29.970Z,99.50
2023-03-03T08:12:02.609Z,99.79
2023-03-03T08:14:36.823Z,99.46
2023-03-03T08:17:15.392Z,100.00
2023-03-03T08:19:42.359Z,100.00
2023-03-03T08:22:21.482Z,99.50
2023-03-03T08:24:48.454Z,99.48
2023-03-03T08:27:15.420Z,98.83
2023-03-03T08:29:42.291Z,99.68
2023-03-03T08:32:09.283Z,100.00
2023-03-03T08:34:36.231Z,100.00
2023-03-03T08:37:03.239Z,97.62
2023-03-03T08:39:30.117Z,99.04
2023-03-03T08:41:56.999Z,99.31
2023-03-03T08:44:24.412Z,100.00
2023-03-03T08:46:51.448Z,99.50
2023-03-03T08:49:18.617Z,99.13
2023-03-03T08:51:45.700Z,99.80
2023-03-03T08:54:12.589Z,99.20
2023-03-03T08:56:39.571Z,99.06
2023-03-03T08:59:06.447Z,99.98
2023-03-03T09:01:33.548Z,100.00
2023-03-03T09:04:00.918Z,100.00
2023-03-03T09:06:27.948Z,100.00
2023-03-03T09:08:55.249Z,99.65
2023-03-03T09:11:28.010Z,97.95
2023-03-03T09:14:29.035Z,99.26
2023-03-03T09:16:57.416Z,98.20
2023-03-03T09:19:32.628Z,99.27
2023-03-03T09:22:12.015Z,99.18
2023-03-03T09:24:38.929Z,99.28
2023-03-03T09:27:20.025Z,100.00
2023-03-03T09:29:46.945Z,100.00
2023-03-03T09:32:34.671Z,100.00
2023-03-03T09:35:27.568Z,100.00
2023-03-03T09:37:54.673Z,100.00
2023-03-03T09:40:45.995Z,100.00
2023-03-03T09:43:17.282Z,100.00
2023-03-03T09:45:57.754Z,100.00
2023-03-03T09:48:47.398Z,100.00
2023-03-03T09:51:54.129Z,100.00
2023-03-03T09:54:32.530Z,100.00
2023-03-03T09:57:09.041Z,100.00
2023-03-03T09:59:51.005Z,100.00
2023-03-03T10:02:45.840Z,100.00
2023-03-03T10:05:33.026Z,100.00
2023-03-03T10:08:13.112Z,100.00
2023-03-03T10:10:51.411Z,100.00
2023-03-03T10:13:52.259Z,100.00
2023-03-03T10:16:27.914Z,100.00
2023-03-03T10:19:02.736Z,100.00
2023-03-03T10:21:48.697Z,100.00
2023-03-03T10:24:30.934Z,100.00
2023-03-03T10:27:54.938Z,100.00
2023-03-03T10:30:42.657Z,100.00
2023-03-03T10:33:34.848Z,99.94
2023-03-03T10:36:11.051Z,99.08
2023-03-03T10:39:03.480Z,100.00
2023-03-03T10:41:42.378Z,98.78
2023-03-03T10:44:32.908Z,99.29
2023-03-03T10:47:18.336Z,98.79
2023-03-03T10:50:16.256Z,96.98
2023-03-03T10:53:15.458Z,97.96
2023-03-03T10:55:53.463Z,98.82
2023-03-03T10:58:58.841Z,98.01
2023-03-03T11:01:48.692Z,98.63
2023-03-03T11:04:46.020Z,96.92
2023-03-03T11:07:26.695Z,96.96
2023-03-03T11:10:18.450Z,97.34
2023-03-03T11:12:57.637Z,95.91
2023-03-03T11:15:36.878Z,96.69
2023-03-03T11:18:25.258Z,97.60
2023-03-03T11:21:07.737Z,95.58
2023-03-03T11:23:52.600Z,94.88
2023-03-03T11:26:40.974Z,95.23
2023-03-03T11:29:31.608Z,94.97
2023-03-03T11:32:24.548Z,95.74
2023-03-03T11:35:23.872Z,94.04
2023-03-03T11:38:14.804Z,93.51
2023-03-03T11:41:07.386Z,93.29
2023-03-03T11:43:50.092Z,93.21
2023-03-03T11:46:22.757Z,92.36
2023-03-03T11:48:52.440Z,92.43
2023-03-03T11:51:41.626Z,90.90
2023-03-03T11:54:24.508Z,90.59
2023-03-03T11:56:57.669Z,89.96
2023-03-03T11:59:55.188Z,87.56
2023-03-03T12:02:28.021Z,87.82
2023-03-03T12:05:21.760Z,89.44
2023-03-03T12:08:08.061Z,89.90
2023-03-03T12:10:58.413Z,89.46
2023-03-03T12:13:50.967Z,89.71
2023-03-03T12:16:43.988Z,89.24
2023-03-03T12:19:16.710Z,88.53
2023-03-03T12:21:49.679Z,88.46
2023-03-03T12:24:54.557Z,87.50
2023-03-03T12:27:36.656Z,87.75
2023-03-03T12:30:40.817Z,87.67
2023-03-03T12:33:39.692Z,87.65
2023-03-03T12:36:27.855Z,88.05
2023-03-03T12:39:07.011Z,88.04
2023-03-03T12:41:45.909Z,87.62
2023-03-03T12:44:26.464Z,88.34
2023-03-03T12:47:23.956Z,86.40
2023-03-03T12:50:23.669Z,86.30
2023-03-03T12:53:02.767Z,86.11
2023-03-03T12:55:52.925Z,84.81
2023-03-03T12:58:20.666Z,84.82
2023-03-03T13:01:13.869Z,83.57
2023-03-03T13:03:55.006Z,83.52
2023-03-03T13:06:34.535Z,83.93
2023-03-03T13:09:27.185Z,84.41
2023-03-03T13:12:16.622Z,84.40
2023-03-03T13:15:02.832Z,85.09
2023-03-03T13:17:40.227Z,84.51
2023-03-03T13:20:35.061Z,85.47
2023-03-03T13:23:22.239Z,85.73
2023-03-03T13:26:00.998Z,85.19
2023-03-03T13:28:50.630Z,83.78
2023-03-03T13:31:22.257Z,83.20
2023-03-03T13:33:58.344Z,82.34
2023-03-03T13:36:41.732Z,86.02
2023-03-03T13:39:23.569Z,87.08
2023-03-03T13:42:01.843Z,87.02
2023-03-03T13:44:40.736Z,87.90
2023-03-03T13:47:14.839Z,87.05
2023-03-03T13:49:55.548Z,85.91
2023-03-03T13:52:25.651Z,84.83
2023-03-03T13:55:00.327Z,84.20
2023-03-03T13:57:30.113Z,83.44
2023-03-03T14:00:02.689Z,82.32
2023-03-03T14:02:48.295Z,82.92
2023-03-03T14:05:37.770Z,83.85
2023-03-03T14:08:25.748Z,83.49
2023-03-03T14:11:07.645Z,82.42
2023-03-03T14:13:49.681Z,82.49
2023-03-03T14:16:23.502Z,83.33
2023-03-03T14:19:04.026Z,83.29
2023-03-03T14:21:40.777Z,83.91
2023-03-03T14:24:17.602Z,83.06
2023-03-03T14:26:59.495Z,82.65
2023-03-03T14:29:26.306Z,83.68
2023-03-03T14:31:54.667Z,85.14
2023-03-03T14:34:24.619Z,86.21
2023-03-03T14:36:57.802Z,87.08
2023-03-03T14:39:40.302Z,86.86
2023-03-03T14:42:31.763Z,87.14
2023-03-03T14:45:01.438Z,87.08
2023-03-03T14:47:30.094Z,86.42
2023-03-03T14:50:03.189Z,85.06
2023-03-03T14:52:33.647Z,84.07
2023-03-03T14:55:05.470Z,84.16
2023-03-03T14:57:34.729Z,82.80
2023-03-03T15:00:27.910Z,83.07
2023-03-03T15:03:16.239Z,84.42
2023-03-03T15:05:51.410Z,84.90
2023-03-03T15:08:31.242Z,84.69
2023-03-03T15:11:14.514Z,84.61
2023-03-03T15:13:41.543Z,83.72
2023-03-03T15:16:16.925Z,84.61
2023-03-03T15:19:14.824Z,85.39
2023-03-03T15:21:55.545Z,85.17
2023-03-03T15:24:39.605Z,84.76
2023-03-03T15:27:21.406Z,85.08
2023-03-03T15:30:02.275Z,85.34
2023-03-03T15:32:51.984Z,84.43
2023-03-03T15:35:35.001Z,83.87
2023-03-03T15:38:25.300Z,84.03
2023-03-03T15:41:06.967Z,85.91
2023-03-03T15:43:39.329Z,85.38
2023-03-03T15:46:33.835Z,86.47
2023-03-03T15:49:22.131Z,85.83
2023-03-03T15:52:21.610Z,84.81
2023-03-03T15:54:51.247Z,84.82
2023-03-03T15:57:50.763Z,84.74
2023-03-03T16:00:29.474Z,85.15
2023-03-03T16:03:02.599Z,85.87
2023-03-03T16:05:39.888Z,85.92
2023-03-03T16:08:19.292Z,87.20
2023-03-03T16:11:09.561Z,86.49
2023-03-03T16:13:59.921Z,86.32
2023-03-03T16:16:41.826Z,86.92
2023-03-03T16:19:45.384Z,87.31
2023-03-03T16:22:49.392Z,87.40
2023-03-03T16:25:37.956Z,88.72
2023-03-03T16:28:07.610Z,87.59
2023-03-03T16:30:53.401Z,88.59
2023-03-03T16:33:20.272Z,87.65
2023-03-03T16:36:02.723Z,88.26
2023-03-03T16:38:44.331Z,88.10
2023-03-03T16:41:23.452Z,88.44
2023-03-03T16:44:16.401Z,88.98
2023-03-03T16:46:50.000Z,88.32
2023-03-03T16:49:32.091Z,89.42
2023-03-03T16:52:07.753Z,88.38
2023-03-03T16:54:40.739Z,88.48
2023-03-03T16:57:46.153Z,89.54
2023-03-03T17:00:21.691Z,90.29
2023-03-03T17:03:13.446Z,90.56
2023-03-03T17:05:45.492Z,88.72
2023-03-03T17:08:27.138Z,88.70
2023-03-03T17:11:02.803Z,88.90
2023-03-03T17:13:43.785Z,87.69
2023-03-03T17:16:49.820Z,89.17
2023-03-03T17:19:28.902Z,88.51
2023-03-03T17:22:12.371Z,88.08
2023-03-03T17:24:57.860Z,87.69
2023-03-03T17:27:46.702Z,87.97
2023-03-03T17:30:31.658Z,87.23
2023-03-03T17:33:37.080Z,87.60
2023-03-03T17:36:38.237Z,88.04
2023-03-03T17:39:42.858Z,87.43
2023-03-03T17:42:43.035Z,87.47
2023-03-03T17:45:15.590Z,87.18
2023-03-03T17:47:54.552Z,87.68
2023-03-03T17:50:30.530Z,87.79
2023-03-03T17:52:57.448Z,88.35
2023-03-03T17:55:30.371Z,89.21
2023-03-03T17:58:43.069Z,88.47
2023-03-03T18:02:01.614Z,89.28
2023-03-03T18:04:46.403Z,89.84
2023-03-03T18:07:34.172Z,89.73
2023-03-03T18:10:28.329Z,90.41
2023-03-03T18:13:13.156Z,90.17
2023-03-03T18:16:19.330Z,89.93
2023-03-03T18:19:23.945Z,91.29
2023-03-03T18:22:13.095Z,90.41
2023-03-03T18:25:09.406Z,90.62
2023-03-03T18:27:43.273Z,92.19
2023-03-03T18:30:20.682Z,92.56
2023-03-03T18:33:02.428Z,92.25
2023-03-03T18:35:46.471Z,93.25
2023-03-03T18:38:16.384Z,93.03
2023-03-03T18:41:12.610Z,93.91
2023-03-03T18:43:45.668Z,93.15
2023-03-03T18:46:23.101Z,92.75
2023-03-03T18:48:50.032Z,92.21
2023-03-03T18:51:37.467Z,92.02
2023-03-03T18:54:13.867Z,92.23
2023-03-03T18:57:03.921Z,91.16
2023-03-03T18:59:30.793Z,91.66
2023-03-03T19:02:21.092Z,91.63
2023-03-03T19:05:11.569Z,91.80
2023-03-03T19:07:41.605Z,92.69
2023-03-03T19:10:20.502Z,92.80
2023-03-03T19:12:54.550Z,93.32
2023-03-03T19:15:30.473Z,93.13
2023-03-03T19:18:06.135Z,92.79
2023-03-03T19:20:55.431Z,93.74
2023-03-03T19:23:35.554Z,93.37
2023-03-03T19:26:30.523Z,93.25
2023-03-03T19:29:12.669Z,94.17
2023-03-03T19:32:17.140Z,95.13
2023-03-03T19:35:27.410Z,95.41
2023-03-03T19:38:32.533Z,96.17
2023-03-03T19:41:10.123Z,96.49
2023-03-03T19:44:10.348Z,96.45
2023-03-03T19:46:56.138Z,95.02
2023-03-03T19:49:38.475Z,94.73
2023-03-03T19:52:39.292Z,96.27
2023-03-03T19:55:24.272Z,95.60
2023-03-03T19:58:14.390Z,95.42
2023-03-03T20:00:48.105Z,95.21
2023-03-03T20:03:34.232Z,95.02
2023-03-03T20:06:23.561Z,96.17
2023-03-03T20:09:03.952Z,97.19
2023-03-03T20:11:48.272Z,96.84
2023-03-03T20:14:36.791Z,97.70
2023-03-03T20:17:22.457Z,97.35
2023-03-03T20:19:57.285Z,97.58
2023-03-03T20:23:17.097Z,96.25
2023-03-03T20:25:49.061Z,96.63
2023-03-03T20:28:43.879Z,96.68
2023-03-03T20:31:19.637Z,95.77
2023-03-03T20:33:55.210Z,96.30
2023-03-03T20:36:39.974Z,97.21
2023-03-03T20:39:20.815Z,97.27
2023-03-03T20:42:15.012Z,97.71
2023-03-03T20:44:59.239Z,96.32
2023-03-03T20:48:02.950Z,96.37
2023-03-03T20:50:48.753Z,97.09
2023-03-03T20:53:52.618Z,98.28
2023-03-03T20:56:31.210Z,97.88
2023-03-03T20:59:17.741Z,98.05
2023-03-03T21:02:10.473Z,98.52
2023-03-03T21:04:38.578Z,98.93
2023-03-03T21:07:06.648Z,97.44
2023-03-03T21:09:39.958Z,97.32
2023-03-03T21:12:29.215Z,97.04
2023-03-03T21:15:01.266Z,97.09
2023-03-03T21:17:30.687Z,97.62
2023-03-03T21:20:19.218Z,96.88
2023-03-03T21:22:46.412Z,96.56
2023-03-03T21:25:41.986Z,96.41
2023-03-03T21:28:26.017Z,96.66
2023-03-03T21:31:17.138Z,97.14
2023-03-03T21:33:49.119Z,97.93
2023-03-03T21:36:35.899Z,96.48
2023-03-03T21:39:20.666Z,98.07
2023-03-03T21:41:55.557Z,98.15
2023-03-03T21:44:50.147Z,96.35
2023-03-03T21:47:20.164Z,97.35
2023-03-03T21:49:49.109Z,97.38
2023-03-03T21:52:17.988Z,97.49
2023-03-03T21:54:46.588Z,97.86
2023-03-03T21:57:14.207Z,98.25
2023-03-03T21:59:41.599Z,97.06
2023-03-03T22:02:09.375Z,97.36
2023-03-03T22:04:39.057Z,96.84
2023-03-03T22:07:06.015Z,96.73
2023-03-03T22:09:33.030Z,97.04
2023-03-03T22:11:59.974Z,97.76
2023-03-03T22:14:27.174Z,97.47
2023-03-03T22:16:54.182Z,97.30
2023-03-03T22:19:21.546Z,96.30
2023-03-03T22:21:49.911Z,96.84
2023-03-03T22:24:17.376Z,96.90
2023-03-03T22:26:44.328Z,95.47
2023-03-03T22:29:11.384Z,95.41
2023-03-03T22:31:38.336Z,96.71
2023-03-03T22:34:05.736Z,97.12
2023-03-03T22:36:32.866Z,96.09
2023-03-03T22:39:01.116Z,96.88
2023-03-03T22:41:28.113Z,96.51
2023-03-03T22:43:55.066Z,96.25
2023-03-03T22:46:22.004Z,96.01
2023-03-03T22:48:48.892Z,96.46
2023-03-03T22:51:15.876Z,96.78
2023-03-03T22:53:42.762Z,95.91
2023-03-03T22:56:09.770Z,97.33
2023-03-03T22:58:36.661Z,96.76
2023-03-03T23:01:05.025Z,96.44
2023-03-03T23:03:32.991Z,96.75
2023-03-03T23:06:00.039Z,96.14
2023-03-03T23:08:27.822Z,96.39
2023-03-03T23:10:54.802Z,95.93
2023-03-03T23:13:21.915Z,95.62
2023-03-03T23:15:48.884Z,95.15
2023-03-03T23:18:15.930Z,95.99
2023-03-03T23:20:46.173Z,94.53
2023-03-03T23:23:13.230Z,94.88
2023-03-03T23:25:40.301Z,95.95
2023-03-03T23:28:07.989Z,95.18
2023-03-03T23:30:34.939Z,94.32
2023-03-03T23:33:01.876Z,94.88
2023-03-03T23:35:28.911Z,95.50
2023-03-03T23:37:55.896Z,95.58
2023-03-03T23:40:23.024Z,95.46
2023-03-03T23:42:50.323Z,95.73
2023-03-03T23:45:17.584Z,95.57
2023-03-03T23:47:44.542Z,95.17
2023-03-03T23:50:12.840Z,95.75
2023-03-03T23:52:39.820Z,95.83
2023-03-03T23:55:07.461Z,96.02
2023-03-03T23:57:34.382Z,95.74
